createdAt,value
2022-11-20T00:01:59.204Z,100738.84
2022-11-20T00:04:33.158Z,100748.88
2022-11-20T00:07:06.789Z,100748.59
2022-11-20T00:09:40.573Z,100745.25
2022-11-20T00:12:15.619Z,100746.56
2022-11-20T00:14:49.518Z,100747.59
2022-11-20T00:17:23.037Z,100743.22
2022-11-20T00:19:57.019Z,100742.59
2022-11-20T00:22:30.527Z,100741.84
2022-11-20T00:25:04.701Z,100749.69
2022-11-20T00:27:39.949Z,100739.50
2022-11-20T00:30:15.161Z,100737.41
2022-11-20T00:32:48.936Z,100743.31
2022-11-20T00:35:22.620Z,100750.44
2022-11-20T00:37:56.214Z,100743.56
2022-11-20T00:40:29.950Z,100744.75
2022-11-20T00:43:05.158Z,100736.50
2022-11-20T00:45:39.112Z,100735.25
2022-11-20T00:48:12.713Z,100740.78
2022-11-20T00:50:46.557Z,100737.31
2022-11-20T00:53:20.307Z,100734.59
2022-11-20T00:55:57.757Z,100732.94
2022-11-20T00:58:34.396Z,100733.09
2022-11-20T01:01:10.820Z,100726.75
2022-11-20T01:03:46.121Z,100725.09
2022-11-20T01:06:22.096Z,100733.09
2022-11-20T01:08:57.535Z,100723.72
2022-11-20T01:11:33.703Z,100716.84
2022-11-20T01:14:11.656Z,100721.22
2022-11-20T01:16:48.324Z,100722.19
2022-11-20T01:19:23.586Z,100721.13
2022-11-20T01:21:57.627Z,100718.06
2022-11-20T01:24:31.095Z,100721.41
2022-11-20T01:27:04.769Z,100711.28
2022-11-20T01:29:39.613Z,100710.88
2022-11-20T01:32:13.303Z,100706.63
2022-11-20T01:34:47.038Z,100705.44
2022-11-20T01:37:20.729Z,100702.88
2022-11-20T01:39:54.314Z,100688.84
2022-11-20T01:42:45.971Z,100687.81
2022-11-20T01:45:54.817Z,100688.59
2022-11-20T01:48:34.121Z,100691.03
2022-11-20T01:51:14.868Z,100685.13
2022-11-20T01:53:49.211Z,100687.97
2022-11-20T01:56:24.556Z,100686.97
2022-11-20T01:59:02.832Z,100677.31
2022-11-20T02:01:40.106Z,100683.94
2022-11-20T02:04:15.370Z,100683.44
2022-11-20T02:06:54.380Z,100675.88
2022-11-20T02:09:28.441Z,100678.31
2022-11-20T02:12:02.724Z,100666.78
2022-11-20T02:14:35.492Z,100668.28
2022-11-20T02:17:10.567Z,100669.97
2022-11-20T02:19:44.417Z,100666.00
2022-11-20T02:22:24.222Z,100667.63
2022-11-20T02:25:03.140Z,100668.44
2022-11-20T02:27:36.736Z,100663.66
2022-11-20T02:30:12.899Z,100664.19
2022-11-20T02:32:46.779Z,100656.78
2022-11-20T02:35:41.812Z,100655.09
2022-11-20T02:38:16.338Z,100648.28
2022-11-20T02:40:55.550Z,100658.16
2022-11-20T02:43:29.500Z,100659.47
2022-11-20T02:46:03.297Z,100658.88
2022-11-20T02:48:37.089Z,100653.44
2022-11-20T02:51:10.929Z,100651.63
2022-11-20T02:53:44.485Z,100649.06
2022-11-20T02:56:19.937Z,100645.09
2022-11-20T02:58:53.625Z,100644.97
2022-11-20T03:01:27.453Z,100633.03
2022-11-20T03:04:01.426Z,100641.22
2022-11-20T03:06:35.479Z,100636.72
2022-11-20T03:09:09.172Z,100629.78
2022-11-20T03:11:44.263Z,100635.94
2022-11-20T03:14:18.170Z,100639.91
2022-11-20T03:16:51.979Z,100637.34
2022-11-20T03:19:25.748Z,100638.72
2022-11-20T03:21:59.644Z,100641.44
2022-11-20T03:24:33.235Z,100639.91
2022-11-20T03:27:08.688Z,100644.78
2022-11-20T03:29:42.307Z,100641.56
2022-11-20T03:32:16.113Z,100640.31
2022-11-20T03:34:49.798Z,100639.69
2022-11-20T03:37:23.524Z,100639.38
2022-11-20T03:39:57.104Z,100631.44
2022-11-20T03:42:47.647Z,100635.59
2022-11-20T03:45:21.303Z,100635.75
2022-11-20T03:47:55.127Z,100636.22
2022-11-20T03:50:28.710Z,100635.59
2022-11-20T03:53:02.791Z,100620.50
2022-11-20T03:55:36.279Z,100622.16
2022-11-20T03:58:11.589Z,100619.72
2022-11-20T04:00:45.325Z,100611.88
2022-11-20T04:03:19.195Z,100612.47
2022-11-20T04:05:52.823Z,100616.25
2022-11-20T04:08:26.668Z,100610.22
2022-11-20T04:11:10.596Z,100610.28
2022-11-20T04:13:49.869Z,100616.72
2022-11-20T04:16:24.631Z,100617.34
2022-11-20T04:18:59.816Z,100612.66
2022-11-20T04:21:33.504Z,100619.16
2022-11-20T04:24:08.212Z,100608.47
2022-11-20T04:26:42.155Z,100608.19
2022-11-20T04:29:17.431Z,100611.53
2022-11-20T04:31:51.062Z,100608.97
2022-11-20T04:34:24.758Z,100606.75
2022-11-20T04:36:58.287Z,100606.63
2022-11-20T04:39:32.147Z,100608.56
2022-11-20T04:42:23.378Z,100608.19
2022-11-20T04:44:59.092Z,100600.63
2022-11-20T04:47:32.828Z,100600.63
2022-11-20T04:50:07.743Z,100600.50
2022-11-20T04:52:41.503Z,100598.69
2022-11-20T04:55:15.506Z,100601.25
2022-11-20T04:57:52.608Z,100605.09
2022-11-20T05:00:27.814Z,100594.03
2022-11-20T05:03:01.553Z,100594.31
2022-11-20T05:05:35.971Z,100585.31
2022-11-20T05:08:09.592Z,100582.59
2022-11-20T05:10:43.447Z,100579.72
2022-11-20T05:13:17.251Z,100574.00
2022-11-20T05:15:52.595Z,100576.44
2022-11-20T05:18:26.173Z,100574.00
2022-11-20T05:21:00.545Z,100571.56
2022-11-20T05:23:34.901Z,100564.91
2022-11-20T05:26:10.197Z,100560.03
2022-11-20T05:28:43.996Z,100558.84
2022-11-20T05:31:26.652Z,100555.41
2022-11-20T05:34:01.063Z,100555.53
2022-11-20T05:36:35.642Z,100559.91
2022-11-20T05:39:09.265Z,100552.06
2022-11-20T05:41:42.989Z,100557.31
2022-11-20T05:44:16.946Z,100554.50
2022-11-20T05:46:52.119Z,100550.41
2022-11-20T05:49:25.827Z,100551.28
2022-11-20T05:51:59.669Z,100546.53
2022-11-20T05:54:33.611Z,100544.09
2022-11-20T05:57:07.470Z,100543.59
2022-11-20T05:59:41.153Z,100537.31
2022-11-20T06:02:16.377Z,100542.69
2022-11-20T06:04:50.079Z,100542.97
2022-11-20T06:07:23.960Z,100543.22
2022-11-20T06:09:57.520Z,100539.63
2022-11-20T06:12:33.646Z,100546.56
2022-11-20T06:15:08.233Z,100551.69
2022-11-20T06:17:43.576Z,100544.22
2022-11-20T06:20:17.502Z,100535.88
2022-11-20T06:22:51.276Z,100546.53
2022-11-20T06:25:24.808Z,100545.63
2022-11-20T06:27:58.625Z,100550.13
2022-11-20T06:30:32.155Z,100552.81
2022-11-20T06:33:07.532Z,100558.38
2022-11-20T06:35:41.185Z,100556.56
2022-11-20T06:38:14.979Z,100550.41
2022-11-20T06:40:48.568Z,100543.19
2022-11-20T06:43:22.368Z,100539.84
2022-11-20T06:45:56.948Z,100548.38
2022-11-20T06:48:32.204Z,100548.50
2022-11-20T06:51:07.225Z,100535.53
2022-11-20T06:53:41.273Z,100542.69
2022-11-20T06:56:15.127Z,100545.91
2022-11-20T06:58:49.000Z,100551.78
2022-11-20T07:01:22.597Z,100540.34
2022-11-20T07:03:57.827Z,100528.41
2022-11-20T07:06:31.538Z,100538.69
2022-11-20T07:09:09.898Z,100538.38
2022-11-20T07:11:46.667Z,100542.91
2022-11-20T07:14:20.446Z,100549.09
2022-11-20T07:16:54.070Z,100536.53
2022-11-20T07:19:29.284Z,100545.63
2022-11-20T07:22:02.886Z,100545.41
2022-11-20T07:24:36.808Z,100534.22
2022-11-20T07:27:10.584Z,100537.56
2022-11-20T07:29:44.377Z,100542.16
2022-11-20T07:32:18.139Z,100546.38
2022-11-20T07:34:53.532Z,100541.38
2022-11-20T07:37:27.192Z,100540.25
2022-11-20T07:40:00.903Z,100539.00
2022-11-20T07:42:34.567Z,100540.69
2022-11-20T07:45:08.920Z,100545.03
2022-11-20T07:47:42.579Z,100543.50
2022-11-20T07:50:18.779Z,100536.72
2022-11-20T07:52:53.167Z,100539.56
2022-11-20T07:55:26.918Z,100539.09
2022-11-20T07:58:00.473Z,100530.41
2022-11-20T08:00:34.441Z,100537.56
2022-11-20T08:03:09.074Z,100533.72
2022-11-20T08:05:44.694Z,100533.22
2022-11-20T08:08:18.260Z,100536.16
2022-11-20T08:10:52.015Z,100536.81
2022-11-20T08:13:43.067Z,100532.03
2022-11-20T08:16:17.089Z,100533.59
2022-11-20T08:18:50.710Z,100546.34
2022-11-20T08:21:25.897Z,100539.00
2022-11-20T08:24:00.072Z,100536.91
2022-11-20T08:26:34.269Z,100534.34
2022-11-20T08:29:08.270Z,100538.66
2022-11-20T08:31:41.979Z,100544.97
2022-11-20T08:34:18.993Z,100539.97
2022-11-20T08:36:54.455Z,100548.38
2022-11-20T08:39:28.049Z,100543.56
2022-11-20T08:42:01.842Z,100538.94
2022-11-20T08:44:35.356Z,100546.50
2022-11-20T08:47:09.258Z,100547.34
2022-11-20T08:49:42.762Z,100535.53
2022-11-20T08:52:17.977Z,100546.97
2022-11-20T08:54:51.711Z,100548.28
2022-11-20T08:57:25.554Z,100549.59
2022-11-20T09:02:53.293Z,100546.75
2022-11-20T09:05:26.975Z,100549.34
2022-11-20T09:08:02.157Z,100550.34
2022-11-20T09:10:35.914Z,100553.78
2022-11-20T09:13:09.658Z,100544.78
2022-11-20T09:15:43.238Z,100552.63
2022-11-20T09:18:17.149Z,100544.91
2022-11-20T09:20:51.014Z,100543.28
2022-11-20T09:23:26.374Z,100551.63
2022-11-20T09:26:00.655Z,100549.81
2022-11-20T09:28:35.035Z,100544.06
2022-11-20T09:31:09.784Z,100540.84
2022-11-20T09:33:43.900Z,100540.84
2022-11-20T09:36:19.457Z,100537.13
2022-11-20T09:38:54.816Z,100532.38
2022-11-20T09:41:58.481Z,100540.00
2022-11-20T09:44:50.888Z,100544.81
2022-11-20T09:47:35.142Z,100554.94
2022-11-20T09:50:25.783Z,100550.75
2022-11-20T09:53:12.873Z,100547.56
2022-11-20T09:55:49.598Z,100552.09
2022-11-20T09:58:33.614Z,100550.66
2022-11-20T10:01:13.313Z,100551.06
2022-11-20T10:03:56.105Z,100545.25
2022-11-20T10:06:33.207Z,100547.06
2022-11-20T10:09:18.875Z,100549.75
2022-11-20T10:12:07.818Z,100551.19
2022-11-20T10:14:56.807Z,100544.22
2022-11-20T10:17:47.175Z,100545.28
2022-11-20T10:20:30.545Z,100544.63
2022-11-20T10:23:26.537Z,100538.47
2022-11-20T10:26:04.240Z,100531.34
2022-11-20T10:28:59.198Z,100538.78
2022-11-20T10:31:37.091Z,100543.59
2022-11-20T10:34:23.319Z,100531.34
2022-11-20T10:37:00.410Z,100534.41
2022-11-20T10:39:41.671Z,100527.88
2022-11-20T10:42:19.604Z,100525.06
2022-11-20T10:45:06.878Z,100530.97
2022-11-20T10:47:40.731Z,100524.91
2022-11-20T10:50:22.628Z,100525.81
2022-11-20T10:53:07.297Z,100517.84
2022-11-20T10:55:47.143Z,100520.25
2022-11-20T10:58:39.691Z,100526.59
2022-11-20T11:01:19.324Z,100526.84
2022-11-20T11:03:54.767Z,100527.63
2022-11-20T11:06:35.997Z,100526.75
2022-11-20T11:09:16.457Z,100520.19
2022-11-20T11:11:50.486Z,100512.19
2022-11-20T11:14:25.570Z,100511.19
2022-11-20T11:17:01.474Z,100513.09
2022-11-20T11:19:35.140Z,100496.50
2022-11-20T11:22:18.772Z,100502.13
2022-11-20T11:24:54.775Z,100502.78
2022-11-20T11:27:28.952Z,100496.88
2022-11-20T11:30:15.967Z,100502.16
2022-11-20T11:32:51.505Z,100498.72
2022-11-20T11:35:27.278Z,100498.72
2022-11-20T11:38:06.368Z,100503.19
2022-11-20T11:40:41.905Z,100501.09
2022-11-20T11:43:39.956Z,100503.97
2022-11-20T11:46:27.980Z,100503.56
2022-11-20T11:49:14.515Z,100501.38
2022-11-20T11:52:01.416Z,100492.13
2022-11-20T11:54:42.844Z,100493.66
2022-11-20T11:57:25.263Z,100497.16
2022-11-20T12:00:04.267Z,100492.78
2022-11-20T12:02:41.441Z,100500.88
2022-11-20T12:05:21.732Z,100492.66
2022-11-20T12:08:00.093Z,100490.69
2022-11-20T12:10:43.322Z,100497.94
2022-11-20T12:13:38.628Z,100498.31
2022-11-20T12:16:15.887Z,100486.56
2022-11-20T12:18:52.103Z,100489.03
2022-11-20T12:21:36.351Z,100490.06
2022-11-20T12:24:34.438Z,100484.66
2022-11-20T12:27:29.158Z,100481.31
2022-11-20T12:30:05.400Z,100480.28
2022-11-20T12:33:14.955Z,100476.53
2022-11-20T12:36:05.772Z,100471.75
2022-11-20T12:38:59.474Z,100475.59
2022-11-20T12:42:05.693Z,100466.97
2022-11-20T12:45:13.703Z,100461.56
2022-11-20T12:48:16.832Z,100460.66
2022-11-20T12:51:15.547Z,100454.22
2022-11-20T12:54:02.231Z,100457.06
2022-11-20T12:56:45.349Z,100455.81
2022-11-20T12:59:31.993Z,100452.75
2022-11-20T13:02:21.096Z,100453.88
2022-11-20T13:05:01.038Z,100452.75
2022-11-20T13:07:37.293Z,100458.88
2022-11-20T13:10:21.304Z,100456.78
2022-11-20T13:13:01.101Z,100454.38
2022-11-20T13:15:46.544Z,100453.06
2022-11-20T13:18:21.055Z,100455.00
2022-11-20T13:20:54.789Z,100446.00
2022-11-20T13:23:29.790Z,100447.06
2022-11-20T13:26:17.731Z,100444.69
2022-11-20T13:29:03.723Z,100445.22
2022-11-20T13:31:40.923Z,100438.75
2022-11-20T13:34:24.974Z,100443.59
2022-11-20T13:37:01.817Z,100444.38
2022-11-20T13:39:37.474Z,100441.38
2022-11-20T13:42:27.173Z,100437.66
2022-11-20T13:45:04.130Z,100438.88
2022-11-20T13:47:38.258Z,100438.72
2022-11-20T13:50:16.216Z,100436.66
2022-11-20T13:53:10.045Z,100429.97
2022-11-20T13:55:53.145Z,100426.78
2022-11-20T13:58:42.497Z,100428.16
2022-11-20T14:01:19.872Z,100414.56
2022-11-20T14:04:10.394Z,100420.59
2022-11-20T14:06:46.140Z,100420.75
2022-11-20T14:09:28.894Z,100419.47
2022-11-20T14:12:04.465Z,100418.94
2022-11-20T14:14:50.326Z,100418.59
2022-11-20T14:17:26.339Z,100416.66
2022-11-20T14:20:03.352Z,100406.25
2022-11-20T14:22:37.471Z,100412.56
2022-11-20T14:25:24.194Z,100407.69
2022-11-20T14:28:00.522Z,100401.75
2022-11-20T14:30:45.095Z,100402.03
2022-11-20T14:33:20.857Z,100403.44
2022-11-20T14:35:56.564Z,100402.66
2022-11-20T14:38:33.421Z,100405.22
2022-11-20T14:41:10.619Z,100405.53
2022-11-20T14:43:48.087Z,100413.53
2022-11-20T14:46:23.798Z,100407.44
2022-11-20T14:48:59.887Z,100409.66
2022-11-20T14:51:35.917Z,100404.00
2022-11-20T14:54:11.579Z,100396.31
2022-11-20T14:56:56.337Z,100397.84
2022-11-20T14:59:31.790Z,100400.06
2022-11-20T15:02:10.835Z,100390.94
2022-11-20T15:04:49.275Z,100391.97
2022-11-20T15:07:27.310Z,100386.56
2022-11-20T15:10:05.475Z,100382.44
2022-11-20T15:12:42.398Z,100380.00
2022-11-20T15:15:21.327Z,100380.13
2022-11-20T15:17:56.439Z,100380.38
2022-11-20T15:20:33.534Z,100382.31
2022-11-20T15:23:12.895Z,100375.59
2022-11-20T15:25:47.814Z,100371.88
2022-11-20T15:28:23.718Z,100370.59
2022-11-20T15:30:57.918Z,100373.81
2022-11-20T15:33:33.833Z,100366.75
2022-11-20T15:36:07.961Z,100366.22
2022-11-20T15:38:41.619Z,100367.75
2022-11-20T15:41:15.516Z,100366.47
2022-11-20T15:43:49.163Z,100359.66
2022-11-20T15:46:28.167Z,100355.81
2022-11-20T15:49:02.971Z,100355.81
2022-11-20T15:51:38.660Z,100350.38
2022-11-20T15:54:13.681Z,100351.03
2022-11-20T15:56:47.544Z,100355.81
2022-11-20T15:59:21.192Z,100355.56
2022-11-20T16:01:54.964Z,100351.31
2022-11-20T16:04:29.777Z,100348.47
2022-11-20T16:07:03.612Z,100352.88
2022-11-20T16:09:37.128Z,100348.63
2022-11-20T16:12:31.657Z,100344.22
2022-11-20T16:15:23.613Z,100339.84
2022-11-20T16:17:57.278Z,100339.84
2022-11-20T16:20:33.122Z,100332.91
2022-11-20T16:23:07.539Z,100335.59
2022-11-20T16:25:41.038Z,100325.19
2022-11-20T16:28:18.939Z,100330.34
2022-11-20T16:30:52.972Z,100338.34
2022-11-20T16:33:26.674Z,100330.75
2022-11-20T16:36:08.943Z,100329.44
2022-11-20T16:38:43.121Z,100330.47
2022-11-20T16:41:16.766Z,100325.47
2022-11-20T16:43:52.445Z,100325.06
2022-11-20T16:46:28.563Z,100333.44
2022-11-20T16:49:04.282Z,100323.41
2022-11-20T16:51:39.214Z,100316.22
2022-11-20T16:54:20.872Z,100322.78
2022-11-20T16:56:55.133Z,100327.91
2022-11-20T16:59:28.963Z,100322.78
2022-11-20T17:02:03.012Z,100316.75
2022-11-20T17:04:36.950Z,100315.84
2022-11-20T17:07:12.381Z,100315.97
2022-11-20T17:09:46.374Z,100310.81
2022-11-20T17:12:20.020Z,100309.66
2022-11-20T17:14:54.013Z,100316.38
2022-11-20T17:17:27.594Z,100313.41
2022-11-20T17:20:01.238Z,100310.97
2022-11-20T17:22:36.555Z,100311.09
2022-11-20T17:25:10.542Z,100304.16
2022-11-20T17:27:44.175Z,100302.84
2022-11-20T17:30:18.000Z,100298.13
2022-11-20T17:32:51.510Z,100303.00
2022-11-20T17:35:25.214Z,100300.56
2022-11-20T17:38:00.047Z,100291.94
2022-11-20T17:40:34.040Z,100290.94
2022-11-20T17:43:07.527Z,100297.88
2022-11-20T17:45:41.178Z,100294.66
2022-11-20T17:48:14.793Z,100296.03
2022-11-20T17:50:48.597Z,100298.38
2022-11-20T17:53:23.482Z,100300.81
2022-11-20T17:56:26.562Z,100299.13
2022-11-20T17:59:00.816Z,100298.53
2022-11-20T18:01:35.194Z,100290.03
2022-11-20T18:04:08.717Z,100292.88
2022-11-20T18:06:43.669Z,100295.31
2022-11-20T18:09:18.743Z,100300.06
2022-11-20T18:11:52.404Z,100293.88
2022-11-20T18:14:32.657Z,100294.78
2022-11-20T18:17:09.357Z,100295.56
2022-11-20T18:20:07.278Z,100293.88
2022-11-20T18:22:39.146Z,100296.97
2022-11-20T18:25:14.020Z,100291.84
2022-11-20T18:27:47.757Z,100293.75
2022-11-20T18:30:21.227Z,100289.41
2022-11-20T18:32:55.680Z,100286.72
2022-11-20T18:35:29.270Z,100288.38
2022-11-20T18:38:02.998Z,100286.72
2022-11-20T18:40:38.241Z,100283.38
2022-11-20T18:43:30.281Z,100278.09
2022-11-20T18:46:04.551Z,100282.84
2022-11-20T18:48:38.749Z,100285.66
2022-11-20T18:51:16.118Z,100270.66
2022-11-20T18:53:49.886Z,100274.38
2022-11-20T18:56:24.701Z,100273.72
2022-11-20T18:59:01.555Z,100272.03
2022-11-20T19:01:36.260Z,100274.84
2022-11-20T19:04:11.884Z,100263.28
2022-11-20T19:06:49.238Z,100267.63
2022-11-20T19:09:24.724Z,100268.53
2022-11-20T19:12:00.194Z,100256.34
2022-11-20T19:14:34.254Z,100259.03
2022-11-20T19:17:10.264Z,100262.78
2022-11-20T19:19:44.289Z,100255.06
2022-11-20T19:22:18.106Z,100253.41
2022-11-20T19:24:51.983Z,100249.19
2022-11-20T19:27:26.918Z,100254.69
2022-11-20T19:30:03.385Z,100239.69
2022-11-20T19:32:37.458Z,100246.88
2022-11-20T19:35:11.276Z,100240.19
2022-11-20T19:37:45.037Z,100238.28
2022-11-20T19:40:18.928Z,100233.66
2022-11-20T19:42:53.832Z,100230.19
2022-11-20T19:45:27.673Z,100220.94
2022-11-20T19:48:08.828Z,100226.31
2022-11-20T19:50:42.782Z,100224.00
2022-11-20T19:53:16.679Z,100215.19
2022-11-20T19:55:57.858Z,100217.63
2022-11-20T19:58:32.942Z,100215.31
2022-11-20T20:01:08.456Z,100218.41
2022-11-20T20:03:42.596Z,100205.44
2022-11-20T20:06:21.516Z,100198.88
2022-11-20T20:08:56.528Z,100194.50
2022-11-20T20:11:32.784Z,100192.34
2022-11-20T20:14:09.871Z,100191.44
2022-11-20T20:16:44.154Z,100196.69
2022-11-20T20:19:17.945Z,100191.44
2022-11-20T20:21:51.639Z,100193.84
2022-11-20T20:24:25.226Z,100195.81
2022-11-20T20:26:58.975Z,100188.88
2022-11-20T20:29:33.818Z,100185.50
2022-11-20T20:32:07.606Z,100183.31
2022-11-20T20:34:41.092Z,100177.69
2022-11-20T20:37:14.805Z,100180.88
2022-11-20T20:39:48.693Z,100182.19
2022-11-20T20:42:22.638Z,100184.63
2022-11-20T20:45:11.227Z,100180.00
2022-11-20T20:47:44.944Z,100175.50
2022-11-20T20:50:19.023Z,100172.44
2022-11-20T20:52:52.817Z,100169.34
2022-11-20T20:55:26.459Z,100157.66
2022-11-20T20:58:00.238Z,100161.38
2022-11-20T21:00:35.265Z,100157.16
2022-11-20T21:03:09.053Z,100155.31
2022-11-20T21:05:42.768Z,100160.44
2022-11-20T21:08:22.623Z,100160.03
2022-11-20T21:11:01.872Z,100158.59
2022-11-20T21:13:37.006Z,100155.66
2022-11-20T21:16:13.016Z,100162.97
2022-11-20T21:18:47.220Z,100157.44
2022-11-20T21:21:38.666Z,100153.69
2022-11-20T21:24:12.397Z,100151.13
2022-11-20T21:26:46.084Z,100153.03
2022-11-20T21:29:19.889Z,100155.00
2022-11-20T21:31:55.341Z,100155.78
2022-11-20T21:34:29.088Z,100150.66
2022-11-20T21:37:02.617Z,100152.56
2022-11-20T21:39:50.450Z,100152.56
2022-11-20T21:42:24.226Z,100147.91
2022-11-20T21:44:58.045Z,100143.16
2022-11-20T21:47:32.900Z,100133.28
2022-11-20T21:50:07.132Z,100132.25
2022-11-20T21:52:40.712Z,100127.00
2022-11-20T21:55:14.511Z,100126.31
2022-11-20T21:57:48.202Z,100119.13
2022-11-20T22:00:22.261Z,100120.53
2022-11-20T22:02:57.199Z,100113.34
2022-11-20T22:05:31.040Z,100119.88
2022-11-20T22:08:04.790Z,100117.06
2022-11-20T22:10:38.702Z,100112.28
2022-11-20T22:13:29.659Z,100101.75
2022-11-20T22:16:03.456Z,100101.50
2022-11-20T22:18:43.609Z,100100.72
2022-11-20T22:21:18.789Z,100103.28
2022-11-20T22:23:52.992Z,100102.25
2022-11-20T22:26:28.892Z,100097.13
2022-11-20T22:29:02.597Z,100093.78
2022-11-20T22:31:36.539Z,100095.78
2022-11-20T22:34:13.494Z,100100.63
2022-11-20T22:36:47.280Z,100103.81
2022-11-20T22:39:22.725Z,100108.53
2022-11-20T22:41:56.357Z,100103.28
2022-11-20T22:44:29.869Z,100101.75
2022-11-20T22:47:08.703Z,100103.03
2022-11-20T22:49:46.030Z,100095.53
2022-11-20T22:52:19.903Z,100098.59
2022-11-20T22:54:53.562Z,100097.97
2022-11-20T22:57:27.249Z,100099.13
2022-11-20T23:00:00.765Z,100099.75
2022-11-20T23:02:34.756Z,100103.56
2022-11-20T23:05:09.871Z,100102.28
2022-11-20T23:07:44.233Z,100097.03
2022-11-20T23:10:17.880Z,100097.78
2022-11-20T23:12:51.653Z,100088.75
2022-11-20T23:15:25.246Z,100090.16
2022-11-20T23:17:58.990Z,100087.97
2022-11-20T23:20:36.041Z,100084.84
2022-11-20T23:23:09.649Z,100089.69
2022-11-20T23:25:43.291Z,100090.31
2022-11-20T23:28:17.145Z,100083.25
2022-11-20T23:30:50.864Z,100083.25
2022-11-20T23:33:25.008Z,100072.75
2022-11-20T23:35:59.814Z,100071.56
2022-11-20T23:38:33.515Z,100074.13
2022-11-20T23:41:07.216Z,100071.56
2022-11-20T23:43:41.326Z,100070.81
2022-11-20T23:46:16.765Z,100062.63
2022-11-20T23:48:50.736Z,100063.69
2022-11-20T23:51:25.592Z,100057.53
2022-11-20T23:54:04.332Z,100048.94
2022-11-20T23:56:38.365Z,100047.16
2022-11-20T23:59:12.081Z,100048.06
